sensor_id;sensor_type;location;lat;lon;timestamp;temperature;humidity
65038;DHT22;51605;47.040;15.294;2023-08-01T00:00:11;24.10;54.40
65038;DHT22;51605;47.040;15.294;2023-08-01T00:02:38;24.10;54.40
65038;DHT22;51605;47.040;15.294;2023-08-01T00:05:05;24.10;54.40
65038;DHT22;51605;47.040;15.294;2023-08-01T00:07:30;24.10;54.40
65038;DHT22;51605;47.040;15.294;2023-08-01T00:09:56;24.10;54.40
65038;DHT22;51605;47.040;15.294;2023-08-01T00:12:23;24.10;54.40
65038;DHT22;51605;47.040;15.294;2023-08-01T00:14:49;24.10;54.40
65038;DHT22;51605;47.040;15.294;2023-08-01T00:17:15;24.10;54.40
65038;DHT22;51605;47.040;15.294;2023-08-01T00:19:40;24.10;54.40
65038;DHT22;51605;47.040;15.294;2023-08-01T00:22:06;24.10;54.40
65038;DHT22;51605;47.040;15.294;2023-08-01T00:24:31;24.10;54.40
65038;DHT22;51605;47.040;15.294;2023-08-01T00:26:57;24.20;54.40
65038;DHT22;51605;47.040;15.294;2023-08-01T00:29:23;24.10;54.40
65038;DHT22;51605;47.040;15.294;2023-08-01T00:31:49;24.10;54.40
65038;DHT22;51605;47.040;15.294;2023-08-01T00:34:14;24.20;54.40
65038;DHT22;51605;47.040;15.294;2023-08-01T00:36:40;24.20;54.40
65038;DHT22;51605;47.040;15.294;2023-08-01T00:39:05;24.10;54.30
65038;DHT22;51605;47.040;15.294;2023-08-01T00:41:31;24.10;54.40
65038;DHT22;51605;47.040;15.294;2023-08-01T00:43:57;24.10;54.80
65038;DHT22;51605;47.040;15.294;2023-08-01T00:46:23;24.10;54.40
65038;DHT22;51605;47.040;15.294;2023-08-01T00:48:49;24.10;54.40
65038;DHT22;51605;47.040;15.294;2023-08-01T00:51:15;24.10;54.40
65038;DHT22;51605;47.040;15.294;2023-08-01T00:53:43;24.20;54.30
65038;DHT22;51605;47.040;15.294;2023-08-01T00:56:11;24.20;54.40
65038;DHT22;51605;47.040;15.294;2023-08-01T00:58:36;24.10;55.30
65038;DHT22;51605;47.040;15.294;2023-08-01T01:01:02;24.10;54.30
65038;DHT22;51605;47.040;15.294;2023-08-01T01:03:29;24.10;54.40
65038;DHT22;51605;47.040;15.294;2023-08-01T01:08:37;24.10;54.40
65038;DHT22;51605;47.040;15.294;2023-08-01T01:11:03;24.10;54.40
65038;DHT22;51605;47.040;15.294;2023-08-01T01:13:30;24.10;54.40
65038;DHT22;51605;47.040;15.294;2023-08-01T01:15:55;24.10;54.40
65038;DHT22;51605;47.040;15.294;2023-08-01T01:18:21;24.10;54.40
65038;DHT22;51605;47.040;15.294;2023-08-01T01:20:46;24.10;54.40
65038;DHT22;51605;47.040;15.294;2023-08-01T01:23:12;24.10;54.40
65038;DHT22;51605;47.040;15.294;2023-08-01T01:25:39;24.10;54.40
65038;DHT22;51605;47.040;15.294;2023-08-01T01:28:07;24.10;54.40
65038;DHT22;51605;47.040;15.294;2023-08-01T01:30:34;24.10;54.40
65038;DHT22;51605;47.040;15.294;2023-08-01T01:33:03;24.10;54.40
65038;DHT22;51605;47.040;15.294;2023-08-01T01:35:29;24.10;54.40
65038;DHT22;51605;47.040;15.294;2023-08-01T01:37:55;24.10;54.40
65038;DHT22;51605;47.040;15.294;2023-08-01T01:40:21;24.10;54.40
65038;DHT22;51605;47.040;15.294;2023-08-01T01:42:46;24.10;54.40
65038;DHT22;51605;47.040;15.294;2023-08-01T01:45:13;24.10;54.40
65038;DHT22;51605;47.040;15.294;2023-08-01T01:47:39;24.10;54.40
65038;DHT22;51605;47.040;15.294;2023-08-01T01:50:05;24.10;54.40
65038;DHT22;51605;47.040;15.294;2023-08-01T01:52:31;24.10;54.40
65038;DHT22;51605;47.040;15.294;2023-08-01T01:54:58;24.10;54.40
65038;DHT22;51605;47.040;15.294;2023-08-01T01:57:24;24.10;54.40
65038;DHT22;51605;47.040;15.294;2023-08-01T01:59:49;24.10;54.40
65038;DHT22;51605;47.040;15.294;2023-08-01T02:02:15;24.10;54.40
65038;DHT22;51605;47.040;15.294;2023-08-01T02:04:40;24.10;54.40
65038;DHT22;51605;47.040;15.294;2023-08-01T02:07:06;24.10;54.40
65038;DHT22;51605;47.040;15.294;2023-08-01T02:09:32;24.10;54.30
65038;DHT22;51605;47.040;15.294;2023-08-01T02:11:57;24.10;54.40
65038;DHT22;51605;47.040;15.294;2023-08-01T02:14:23;24.10;54.40
65038;DHT22;51605;47.040;15.294;2023-08-01T02:16:49;24.10;54.40
65038;DHT22;51605;47.040;15.294;2023-08-01T02:19:14;24.10;54.40
65038;DHT22;51605;47.040;15.294;2023-08-01T02:21:40;24.10;54.40
65038;DHT22;51605;47.040;15.294;2023-08-01T02:24:05;24.10;54.40
65038;DHT22;51605;47.040;15.294;2023-08-01T02:26:31;24.10;54.30
65038;DHT22;51605;47.040;15.294;2023-08-01T02:28:57;24.10;54.30
65038;DHT22;51605;47.040;15.294;2023-08-01T02:31:22;24.10;54.40
65038;DHT22;51605;47.040;15.294;2023-08-01T02:33:48;24.10;54.40
65038;DHT22;51605;47.040;15.294;2023-08-01T02:36:13;24.10;54.40
65038;DHT22;51605;47.040;15.294;2023-08-01T02:38:39;24.10;54.40
65038;DHT22;51605;47.040;15.294;2023-08-01T02:41:05;24.10;54.40
65038;DHT22;51605;47.040;15.294;2023-08-01T02:43:30;24.10;54.40
65038;DHT22;51605;47.040;15.294;2023-08-01T02:45:56;24.10;54.40
65038;DHT22;51605;47.040;15.294;2023-08-01T02:48:21;24.10;54.30
65038;DHT22;51605;47.040;15.294;2023-08-01T02:50:47;24.10;54.40
65038;DHT22;51605;47.040;15.294;2023-08-01T02:53:13;24.10;54.30
65038;DHT22;51605;47.040;15.294;2023-08-01T02:55:39;24.10;54.30
65038;DHT22;51605;47.040;15.294;2023-08-01T02:58:04;24.10;54.40
65038;DHT22;51605;47.040;15.294;2023-08-01T03:00:30;24.10;54.30
65038;DHT22;51605;47.040;15.294;2023-08-01T03:02:57;24.10;54.30
65038;DHT22;51605;47.040;15.294;2023-08-01T03:05:22;24.10;54.30
65038;DHT22;51605;47.040;15.294;2023-08-01T03:07:48;24.20;54.20
65038;DHT22;51605;47.040;15.294;2023-08-01T03:10:14;24.10;54.20
65038;DHT22;51605;47.040;15.294;2023-08-01T03:12:39;24.10;54.30
65038;DHT22;51605;47.040;15.294;2023-08-01T03:15:05;24.10;54.40
65038;DHT22;51605;47.040;15.294;2023-08-01T03:17:34;24.10;54.30
65038;DHT22;51605;47.040;15.294;2023-08-01T03:19:59;24.10;54.40
65038;DHT22;51605;47.040;15.294;2023-08-01T03:22:25;24.10;54.40
65038;DHT22;51605;47.040;15.294;2023-08-01T03:24:50;24.10;54.30
65038;DHT22;51605;47.040;15.294;2023-08-01T03:27:16;24.10;54.40
65038;DHT22;51605;47.040;15.294;2023-08-01T03:29:42;24.10;54.40
65038;DHT22;51605;47.040;15.294;2023-08-01T03:32:07;24.10;54.40
65038;DHT22;51605;47.040;15.294;2023-08-01T03:34:33;24.10;54.40
65038;DHT22;51605;47.040;15.294;2023-08-01T03:36:58;24.10;54.40
65038;DHT22;51605;47.040;15.294;2023-08-01T03:39:24;24.10;54.40
65038;DHT22;51605;47.040;15.294;2023-08-01T03:41:50;24.10;54.40
65038;DHT22;51605;47.040;15.294;2023-08-01T03:44:16;24.10;54.40
65038;DHT22;51605;47.040;15.294;2023-08-01T03:46:42;24.10;54.40
65038;DHT22;51605;47.040;15.294;2023-08-01T03:49:08;24.10;54.40
65038;DHT22;51605;47.040;15.294;2023-08-01T03:51:34;24.10;54.40
65038;DHT22;51605;47.040;15.294;2023-08-01T03:54:00;24.10;54.40
65038;DHT22;51605;47.040;15.294;2023-08-01T03:56:26;24.10;54.40
65038;DHT22;51605;47.040;15.294;2023-08-01T03:58:53;24.10;54.40
65038;DHT22;51605;47.040;15.294;2023-08-01T04:01:18;24.10;54.40
65038;DHT22;51605;47.040;15.294;2023-08-01T04:03:45;24.10;54.40
65038;DHT22;51605;47.040;15.294;2023-08-01T04:06:10;24.10;54.30
65038;DHT22;51605;47.040;15.294;2023-08-01T04:08:40;24.10;54.40
65038;DHT22;51605;47.040;15.294;2023-08-01T04:11:06;24.10;54.30
65038;DHT22;51605;47.040;15.294;2023-08-01T04:13:31;24.10;54.40
65038;DHT22;51605;47.040;15.294;2023-08-01T04:15:57;24.10;54.40
65038;DHT22;51605;47.040;15.294;2023-08-01T04:18:23;24.10;54.40
65038;DHT22;51605;47.040;15.294;2023-08-01T04:20:48;24.10;54.30
65038;DHT22;51605;47.040;15.294;2023-08-01T04:23:14;24.10;54.30
65038;DHT22;51605;47.040;15.294;2023-08-01T04:25:40;24.10;54.40
65038;DHT22;51605;47.040;15.294;2023-08-01T04:28:06;24.10;54.40
65038;DHT22;51605;47.040;15.294;2023-08-01T04:30:32;24.10;54.40
65038;DHT22;51605;47.040;15.294;2023-08-01T04:32:58;24.10;54.30
65038;DHT22;51605;47.040;15.294;2023-08-01T04:35:24;24.10;54.30
65038;DHT22;51605;47.040;15.294;2023-08-01T04:37:49;24.10;55.20
65038;DHT22;51605;47.040;15.294;2023-08-01T04:40:15;24.10;54.30
65038;DHT22;51605;47.040;15.294;2023-08-01T04:42:41;24.10;54.30
65038;DHT22;51605;47.040;15.294;2023-08-01T04:45:07;24.10;54.30
65038;DHT22;51605;47.040;15.294;2023-08-01T04:47:32;24.10;54.30
65038;DHT22;51605;47.040;15.294;2023-08-01T04:49:58;24.10;54.30
65038;DHT22;51605;47.040;15.294;2023-08-01T04:52:24;24.10;54.30
65038;DHT22;51605;47.040;15.294;2023-08-01T04:54:49;24.10;54.30
65038;DHT22;51605;47.040;15.294;2023-08-01T04:57:15;24.10;54.30
65038;DHT22;51605;47.040;15.294;2023-08-01T04:59:41;24.10;54.30
65038;DHT22;51605;47.040;15.294;2023-08-01T05:02:06;24.10;54.30
65038;DHT22;51605;47.040;15.294;2023-08-01T05:04:32;24.10;54.30
65038;DHT22;51605;47.040;15.294;2023-08-01T05:06:57;24.10;54.30
65038;DHT22;51605;47.040;15.294;2023-08-01T05:09:23;24.10;54.30
65038;DHT22;51605;47.040;15.294;2023-08-01T05:11:49;24.10;54.30
65038;DHT22;51605;47.040;15.294;2023-08-01T05:14:14;24.10;54.40
65038;DHT22;51605;47.040;15.294;2023-08-01T05:16:40;24.10;54.30
65038;DHT22;51605;47.040;15.294;2023-08-01T05:19:05;24.10;54.30
65038;DHT22;51605;47.040;15.294;2023-08-01T05:21:31;24.10;54.30
65038;DHT22;51605;47.040;15.294;2023-08-01T05:23:57;24.10;54.30
65038;DHT22;51605;47.040;15.294;2023-08-01T05:26:22;24.10;54.40
65038;DHT22;51605;47.040;15.294;2023-08-01T05:28:48;24.10;54.30
65038;DHT22;51605;47.040;15.294;2023-08-01T05:31:14;24.10;54.20
65038;DHT22;51605;47.040;15.294;2023-08-01T05:33:39;24.10;54.30
65038;DHT22;51605;47.040;15.294;2023-08-01T05:36:05;24.10;54.30
65038;DHT22;51605;47.040;15.294;2023-08-01T05:38:30;24.10;54.30
65038;DHT22;51605;47.040;15.294;2023-08-01T05:40:56;24.10;54.30
65038;DHT22;51605;47.040;15.294;2023-08-01T05:43:22;24.10;54.30
65038;DHT22;51605;47.040;15.294;2023-08-01T05:45:47;24.10;54.30
65038;DHT22;51605;47.040;15.294;2023-08-01T05:48:13;24.10;54.30
65038;DHT22;51605;47.040;15.294;2023-08-01T05:50:39;24.10;54.30
65038;DHT22;51605;47.040;15.294;2023-08-01T05:53:04;24.10;55.30
65038;DHT22;51605;47.040;15.294;2023-08-01T05:55:31;24.10;54.30
65038;DHT22;51605;47.040;15.294;2023-08-01T05:57:56;24.10;54.30
65038;DHT22;51605;47.040;15.294;2023-08-01T06:00:22;24.10;54.40
65038;DHT22;51605;47.040;15.294;2023-08-01T06:02:48;24.10;54.40
65038;DHT22;51605;47.040;15.294;2023-08-01T06:05:14;24.10;54.40
65038;DHT22;51605;47.040;15.294;2023-08-01T06:07:40;24.10;54.40
65038;DHT22;51605;47.040;15.294;2023-08-01T06:10:06;24.10;54.40
65038;DHT22;51605;47.040;15.294;2023-08-01T06:12:32;24.10;54.40
65038;DHT22;51605;47.040;15.294;2023-08-01T06:14:57;24.10;54.40
65038;DHT22;51605;47.040;15.294;2023-08-01T06:17:23;24.10;54.40
65038;DHT22;51605;47.040;15.294;2023-08-01T06:19:49;24.10;54.50
65038;DHT22;51605;47.040;15.294;2023-08-01T06:22:15;24.10;54.50
65038;DHT22;51605;47.040;15.294;2023-08-01T06:24:41;24.10;54.50
65038;DHT22;51605;47.040;15.294;2023-08-01T06:27:06;24.10;54.40
65038;DHT22;51605;47.040;15.294;2023-08-01T06:29:32;24.10;54.50
65038;DHT22;51605;47.040;15.294;2023-08-01T06:31:58;24.10;54.50
65038;DHT22;51605;47.040;15.294;2023-08-01T06:34:23;24.10;54.50
65038;DHT22;51605;47.040;15.294;2023-08-01T06:36:50;24.10;54.50
65038;DHT22;51605;47.040;15.294;2023-08-01T06:39:16;24.10;55.20
65038;DHT22;51605;47.040;15.294;2023-08-01T06:41:41;24.10;54.50
65038;DHT22;51605;47.040;15.294;2023-08-01T06:44:07;24.10;55.50
65038;DHT22;51605;47.040;15.294;2023-08-01T06:46:33;24.10;54.50
65038;DHT22;51605;47.040;15.294;2023-08-01T06:48:58;24.10;54.50
65038;DHT22;51605;47.040;15.294;2023-08-01T06:51:24;24.10;54.50
65038;DHT22;51605;47.040;15.294;2023-08-01T06:53:49;24.10;54.50
65038;DHT22;51605;47.040;15.294;2023-08-01T06:56:15;24.10;54.60
65038;DHT22;51605;47.040;15.294;2023-08-01T06:58:41;24.10;54.50
65038;DHT22;51605;47.040;15.294;2023-08-01T07:01:06;24.10;54.50
65038;DHT22;51605;47.040;15.294;2023-08-01T07:03:32;24.10;54.50
65038;DHT22;51605;47.040;15.294;2023-08-01T07:05:57;24.10;54.50
65038;DHT22;51605;47.040;15.294;2023-08-01T07:08:23;24.10;54.60
65038;DHT22;51605;47.040;15.294;2023-08-01T07:10:49;24.10;54.50
65038;DHT22;51605;47.040;15.294;2023-08-01T07:13:15;24.10;54.50
65038;DHT22;51605;47.040;15.294;2023-08-01T07:15:41;24.10;54.60
65038;DHT22;51605;47.040;15.294;2023-08-01T07:18:07;24.10;54.50
65038;DHT22;51605;47.040;15.294;2023-08-01T07:20:33;24.20;54.50
65038;DHT22;51605;47.040;15.294;2023-08-01T07:22:58;24.10;54.60
65038;DHT22;51605;47.040;15.294;2023-08-01T07:25:24;24.10;54.50
65038;DHT22;51605;47.040;15.294;2023-08-01T07:27:50;24.10;54.50
65038;DHT22;51605;47.040;15.294;2023-08-01T07:30:16;24.10;54.60
65038;DHT22;51605;47.040;15.294;2023-08-01T07:32:41;24.10;54.60
65038;DHT22;51605;47.040;15.294;2023-08-01T07:35:08;24.10;54.60
65038;DHT22;51605;47.040;15.294;2023-08-01T07:37:34;24.10;54.60
65038;DHT22;51605;47.040;15.294;2023-08-01T07:40:00;24.10;54.60
65038;DHT22;51605;47.040;15.294;2023-08-01T07:42:25;24.10;54.60
65038;DHT22;51605;47.040;15.294;2023-08-01T07:44:51;24.10;54.50
65038;DHT22;51605;47.040;15.294;2023-08-01T07:47:16;24.10;54.50
65038;DHT22;51605;47.040;15.294;2023-08-01T07:49:42;24.10;54.40
65038;DHT22;51605;47.040;15.294;2023-08-01T07:52:08;24.10;54.60
65038;DHT22;51605;47.040;15.294;2023-08-01T07:54:34;24.10;54.60
65038;DHT22;51605;47.040;15.294;2023-08-01T07:56:59;24.10;54.50
65038;DHT22;51605;47.040;15.294;2023-08-01T07:59:25;24.10;54.50
65038;DHT22;51605;47.040;15.294;2023-08-01T08:01:50;24.10;54.50
65038;DHT22;51605;47.040;15.294;2023-08-01T08:04:16;24.10;54.50
65038;DHT22;51605;47.040;15.294;2023-08-01T08:06:42;24.10;54.50
65038;DHT22;51605;47.040;15.294;2023-08-01T08:09:08;24.10;54.50
65038;DHT22;51605;47.040;15.294;2023-08-01T08:11:33;24.10;54.50
65038;DHT22;51605;47.040;15.294;2023-08-01T08:13:59;24.10;54.50
65038;DHT22;51605;47.040;15.294;2023-08-01T08:16:25;24.10;54.40
65038;DHT22;51605;47.040;15.294;2023-08-01T08:18:51;24.10;54.50
65038;DHT22;51605;47.040;15.294;2023-08-01T08:21:16;24.10;54.50
65038;DHT22;51605;47.040;15.294;2023-08-01T08:23:42;24.10;54.40
65038;DHT22;51605;47.040;15.294;2023-08-01T08:26:08;24.10;54.40
65038;DHT22;51605;47.040;15.294;2023-08-01T08:28:34;24.20;54.50
65038;DHT22;51605;47.040;15.294;2023-08-01T08:31:00;24.10;54.40
65038;DHT22;51605;47.040;15.294;2023-08-01T08:33:31;24.10;54.50
65038;DHT22;51605;47.040;15.294;2023-08-01T08:35:56;24.10;54.50
65038;DHT22;51605;47.040;15.294;2023-08-01T08:38:22;24.10;54.50
65038;DHT22;51605;47.040;15.294;2023-08-01T08:41:08;24.10;54.50
65038;DHT22;51605;47.040;15.294;2023-08-01T08:43:35;24.10;54.60
65038;DHT22;51605;47.040;15.294;2023-08-01T08:46:02;24.10;54.50
65038;DHT22;51605;47.040;15.294;2023-08-01T08:48:28;24.10;54.50
65038;DHT22;51605;47.040;15.294;2023-08-01T08:50:57;24.10;54.60
65038;DHT22;51605;47.040;15.294;2023-08-01T08:53:23;24.10;54.40
65038;DHT22;51605;47.040;15.294;2023-08-01T08:55:49;24.10;54.40
65038;DHT22;51605;47.040;15.294;2023-08-01T08:58:15;24.10;54.50
65038;DHT22;51605;47.040;15.294;2023-08-01T09:00:42;24.10;54.40
65038;DHT22;51605;47.040;15.294;2023-08-01T09:03:08;24.10;54.50
65038;DHT22;51605;47.040;15.294;2023-08-01T09:05:50;24.10;54.50
65038;DHT22;51605;47.040;15.294;2023-08-01T09:08:19;24.10;54.70
65038;DHT22;51605;47.040;15.294;2023-08-01T09:10:46;24.10;54.60
65038;DHT22;51605;47.040;15.294;2023-08-01T09:13:11;24.10;54.60
65038;DHT22;51605;47.040;15.294;2023-08-01T09:15:37;24.10;54.50
65038;DHT22;51605;47.040;15.294;2023-08-01T09:18:06;24.10;54.50
65038;DHT22;51605;47.040;15.294;2023-08-01T09:20:46;24.10;54.50
65038;DHT22;51605;47.040;15.294;2023-08-01T09:23:12;24.10;55.50
65038;DHT22;51605;47.040;15.294;2023-08-01T09:25:39;24.10;54.60
65038;DHT22;51605;47.040;15.294;2023-08-01T09:28:22;24.10;54.60
65038;DHT22;51605;47.040;15.294;2023-08-01T09:30:50;24.10;54.60
65038;DHT22;51605;47.040;15.294;2023-08-01T09:33:16;24.10;54.60
65038;DHT22;51605;47.040;15.294;2023-08-01T09:35:42;24.10;54.60
65038;DHT22;51605;47.040;15.294;2023-08-01T09:38:10;24.10;54.60
65038;DHT22;51605;47.040;15.294;2023-08-01T09:40:38;24.10;54.60
65038;DHT22;51605;47.040;15.294;2023-08-01T09:43:03;24.10;54.70
65038;DHT22;51605;47.040;15.294;2023-08-01T09:45:29;24.10;54.60
65038;DHT22;51605;47.040;15.294;2023-08-01T09:47:55;24.10;54.70
65038;DHT22;51605;47.040;15.294;2023-08-01T09:50:22;24.10;54.60
65038;DHT22;51605;47.040;15.294;2023-08-01T09:52:48;24.10;54.60
65038;DHT22;51605;47.040;15.294;2023-08-01T09:55:26;24.10;54.70
65038;DHT22;51605;47.040;15.294;2023-08-01T09:57:54;24.10;54.70
65038;DHT22;51605;47.040;15.294;2023-08-01T10:00:21;24.10;54.60
65038;DHT22;51605;47.040;15.294;2023-08-01T10:02:46;24.10;54.70
65038;DHT22;51605;47.040;15.294;2023-08-01T10:05:13;24.10;54.70
65038;DHT22;51605;47.040;15.294;2023-08-01T10:07:40;24.10;54.60
65038;DHT22;51605;47.040;15.294;2023-08-01T10:10:07;24.10;54.60
65038;DHT22;51605;47.040;15.294;2023-08-01T10:12:33;24.10;54.60
65038;DHT22;51605;47.040;15.294;2023-08-01T10:15:00;24.10;54.70
65038;DHT22;51605;47.040;15.294;2023-08-01T10:17:28;24.10;54.70
65038;DHT22;51605;47.040;15.294;2023-08-01T10:19:53;24.10;54.70
65038;DHT22;51605;47.040;15.294;2023-08-01T10:22:21;24.10;54.60
65038;DHT22;51605;47.040;15.294;2023-08-01T10:24:48;24.20;54.50
65038;DHT22;51605;47.040;15.294;2023-08-01T10:27:18;24.10;54.40
65038;DHT22;51605;47.040;15.294;2023-08-01T10:29:44;24.10;54.60
65038;DHT22;51605;47.040;15.294;2023-08-01T10:32:10;24.10;54.50
65038;DHT22;51605;47.040;15.294;2023-08-01T10:34:36;24.10;54.70
65038;DHT22;51605;47.040;15.294;2023-08-01T10:37:02;24.10;54.60
65038;DHT22;51605;47.040;15.294;2023-08-01T10:39:28;24.10;54.60
65038;DHT22;51605;47.040;15.294;2023-08-01T10:42:01;24.10;54.70
65038;DHT22;51605;47.040;15.294;2023-08-01T10:44:27;24.10;54.60
65038;DHT22;51605;47.040;15.294;2023-08-01T10:47:00;24.10;54.60
65038;DHT22;51605;47.040;15.294;2023-08-01T10:49:43;24.10;54.60
65038;DHT22;51605;47.040;15.294;2023-08-01T10:52:23;24.10;54.60
65038;DHT22;51605;47.040;15.294;2023-08-01T10:55:02;24.10;54.60
65038;DHT22;51605;47.040;15.294;2023-08-01T10:57:29;24.10;54.60
65038;DHT22;51605;47.040;15.294;2023-08-01T10:59:55;24.10;54.60
65038;DHT22;51605;47.040;15.294;2023-08-01T11:02:24;24.10;54.60
65038;DHT22;51605;47.040;15.294;2023-08-01T11:05:04;24.10;54.50
65038;DHT22;51605;47.040;15.294;2023-08-01T11:07:30;24.10;54.60
65038;DHT22;51605;47.040;15.294;2023-08-01T11:10:24;24.10;54.60
65038;DHT22;51605;47.040;15.294;2023-08-01T11:12:50;24.10;54.70
65038;DHT22;51605;47.040;15.294;2023-08-01T11:15:15;24.10;54.70
65038;DHT22;51605;47.040;15.294;2023-08-01T11:17:46;24.10;54.60
65038;DHT22;51605;47.040;15.294;2023-08-01T11:20:13;24.10;54.60
65038;DHT22;51605;47.040;15.294;2023-08-01T11:22:50;24.10;54.70
65038;DHT22;51605;47.040;15.294;2023-08-01T11:25:16;24.10;55.70
65038;DHT22;51605;47.040;15.294;2023-08-01T11:27:42;24.10;54.70
65038;DHT22;51605;47.040;15.294;2023-08-01T11:30:08;24.10;54.60
65038;DHT22;51605;47.040;15.294;2023-08-01T11:32:36;24.10;54.60
65038;DHT22;51605;47.040;15.294;2023-08-01T11:35:02;24.10;54.60
65038;DHT22;51605;47.040;15.294;2023-08-01T11:37:28;24.10;54.60
65038;DHT22;51605;47.040;15.294;2023-08-01T11:39:54;24.10;54.70
65038;DHT22;51605;47.040;15.294;2023-08-01T11:42:20;24.10;54.70
65038;DHT22;51605;47.040;15.294;2023-08-01T11:44:46;24.10;54.70
65038;DHT22;51605;47.040;15.294;2023-08-01T11:47:14;24.10;54.70
65038;DHT22;51605;47.040;15.294;2023-08-01T11:49:48;24.10;54.70
65038;DHT22;51605;47.040;15.294;2023-08-01T11:52:27;24.10;54.70
65038;DHT22;51605;47.040;15.294;2023-08-01T11:54:53;24.10;54.70
65038;DHT22;51605;47.040;15.294;2023-08-01T11:57:23;24.10;54.70
65038;DHT22;51605;47.040;15.294;2023-08-01T11:59:50;24.10;54.70
65038;DHT22;51605;47.040;15.294;2023-08-01T12:02:23;24.10;54.70
65038;DHT22;51605;47.040;15.294;2023-08-01T12:04:48;24.10;54.80
65038;DHT22;51605;47.040;15.294;2023-08-01T12:07:15;24.10;54.70
65038;DHT22;51605;47.040;15.294;2023-08-01T12:09:41;24.10;54.70
65038;DHT22;51605;47.040;15.294;2023-08-01T12:12:08;24.10;54.60
65038;DHT22;51605;47.040;15.294;2023-08-01T12:14:39;24.10;54.70
65038;DHT22;51605;47.040;15.294;2023-08-01T12:17:05;24.10;54.80
65038;DHT22;51605;47.040;15.294;2023-08-01T12:19:31;24.10;54.70
65038;DHT22;51605;47.040;15.294;2023-08-01T12:21:59;24.10;54.70
65038;DHT22;51605;47.040;15.294;2023-08-01T12:24:25;24.10;54.70
65038;DHT22;51605;47.040;15.294;2023-08-01T12:26:50;24.10;54.70
65038;DHT22;51605;47.040;15.294;2023-08-01T12:29:16;24.20;54.60
65038;DHT22;51605;47.040;15.294;2023-08-01T12:31:41;24.20;54.70
65038;DHT22;51605;47.040;15.294;2023-08-01T12:34:07;24.20;54.60
65038;DHT22;51605;47.040;15.294;2023-08-01T12:36:33;24.20;54.60
65038;DHT22;51605;47.040;15.294;2023-08-01T12:38:59;24.20;54.70
65038;DHT22;51605;47.040;15.294;2023-08-01T12:41:24;24.20;54.70
65038;DHT22;51605;47.040;15.294;2023-08-01T12:43:50;24.20;54.70
65038;DHT22;51605;47.040;15.294;2023-08-01T12:46:16;24.10;54.60
65038;DHT22;51605;47.040;15.294;2023-08-01T12:48:41;24.10;54.70
65038;DHT22;51605;47.040;15.294;2023-08-01T12:51:08;24.10;54.70
65038;DHT22;51605;47.040;15.294;2023-08-01T12:53:33;24.10;54.70
65038;DHT22;51605;47.040;15.294;2023-08-01T12:55:59;24.10;54.70
65038;DHT22;51605;47.040;15.294;2023-08-01T12:58:24;24.20;54.80
65038;DHT22;51605;47.040;15.294;2023-08-01T13:00:50;24.10;54.70
65038;DHT22;51605;47.040;15.294;2023-08-01T13:03:16;24.10;54.70
65038;DHT22;51605;47.040;15.294;2023-08-01T13:05:42;24.10;54.60
65038;DHT22;51605;47.040;15.294;2023-08-01T13:08:08;24.20;54.70
65038;DHT22;51605;47.040;15.294;2023-08-01T13:10:35;24.20;54.70
65038;DHT22;51605;47.040;15.294;2023-08-01T13:13:01;24.20;54.70
65038;DHT22;51605;47.040;15.294;2023-08-01T13:15:28;24.10;54.60
65038;DHT22;51605;47.040;15.294;2023-08-01T13:17:54;24.10;54.60
65038;DHT22;51605;47.040;15.294;2023-08-01T13:20:20;24.10;55.60
65038;DHT22;51605;47.040;15.294;2023-08-01T13:22:47;24.20;55.00
65038;DHT22;51605;47.040;15.294;2023-08-01T13:25:13;24.10;55.20
65038;DHT22;51605;47.040;15.294;2023-08-01T13:27:39;24.20;55.30
65038;DHT22;51605;47.040;15.294;2023-08-01T13:30:05;24.20;55.60
65038;DHT22;51605;47.040;15.294;2023-08-01T13:32:31;24.20;55.50
65038;DHT22;51605;47.040;15.294;2023-08-01T13:34:57;24.20;55.70
65038;DHT22;51605;47.040;15.294;2023-08-01T13:37:23;24.20;55.80
65038;DHT22;51605;47.040;15.294;2023-08-01T13:39:48;24.30;56.00
65038;DHT22;51605;47.040;15.294;2023-08-01T13:42:14;24.30;57.10
65038;DHT22;51605;47.040;15.294;2023-08-01T13:44:40;24.40;56.30
65038;DHT22;51605;47.040;15.294;2023-08-01T13:47:06;24.50;56.40
65038;DHT22;51605;47.040;15.294;2023-08-01T13:49:32;24.50;56.30
65038;DHT22;51605;47.040;15.294;2023-08-01T13:51:58;24.60;56.50
65038;DHT22;51605;47.040;15.294;2023-08-01T13:54:24;24.70;56.30
65038;DHT22;51605;47.040;15.294;2023-08-01T13:56:50;24.70;56.20
65038;DHT22;51605;47.040;15.294;2023-08-01T13:59:15;24.80;56.20
65038;DHT22;51605;47.040;15.294;2023-08-01T14:01:41;24.80;56.10
65038;DHT22;51605;47.040;15.294;2023-08-01T14:04:07;24.90;56.10
65038;DHT22;51605;47.040;15.294;2023-08-01T14:06:33;24.90;56.20
65038;DHT22;51605;47.040;15.294;2023-08-01T14:08:58;24.90;56.10
65038;DHT22;51605;47.040;15.294;2023-08-01T14:11:24;24.90;56.20
65038;DHT22;51605;47.040;15.294;2023-08-01T14:13:49;24.80;56.10
65038;DHT22;51605;47.040;15.294;2023-08-01T14:16:15;24.80;56.10
65038;DHT22;51605;47.040;15.294;2023-08-01T14:18:42;24.80;56.10
65038;DHT22;51605;47.040;15.294;2023-08-01T14:21:09;24.70;56.10
65038;DHT22;51605;47.040;15.294;2023-08-01T14:23:35;24.70;56.10
65038;DHT22;51605;47.040;15.294;2023-08-01T14:26:02;24.60;56.00
65038;DHT22;51605;47.040;15.294;2023-08-01T14:28:29;24.60;56.10
65038;DHT22;51605;47.040;15.294;2023-08-01T14:30:55;24.60;56.10
65038;DHT22;51605;47.040;15.294;2023-08-01T14:33:20;24.60;56.10
65038;DHT22;51605;47.040;15.294;2023-08-01T14:35:46;24.60;56.10
65038;DHT22;51605;47.040;15.294;2023-08-01T14:38:12;24.50;56.10
65038;DHT22;51605;47.040;15.294;2023-08-01T14:40:38;24.50;56.10
65038;DHT22;51605;47.040;15.294;2023-08-01T14:43:05;24.50;56.20
65038;DHT22;51605;47.040;15.294;2023-08-01T14:45:31;24.50;56.20
65038;DHT22;51605;47.040;15.294;2023-08-01T14:47:57;24.50;56.30
65038;DHT22;51605;47.040;15.294;2023-08-01T14:50:23;24.40;56.20
65038;DHT22;51605;47.040;15.294;2023-08-01T14:52:48;24.40;56.20
65038;DHT22;51605;47.040;15.294;2023-08-01T14:55:14;24.40;56.20
65038;DHT22;51605;47.040;15.294;2023-08-01T14:57:40;24.40;56.30
65038;DHT22;51605;47.040;15.294;2023-08-01T15:00:06;24.40;56.30
65038;DHT22;51605;47.040;15.294;2023-08-01T15:02:32;24.40;56.30
65038;DHT22;51605;47.040;15.294;2023-08-01T15:04:57;24.40;56.30
65038;DHT22;51605;47.040;15.294;2023-08-01T15:07:24;24.40;56.30
65038;DHT22;51605;47.040;15.294;2023-08-01T15:09:51;24.40;56.30
65038;DHT22;51605;47.040;15.294;2023-08-01T15:12:20;24.40;56.30